Santa Cruz de Tenerife, Spain
Current Conditions -  °F | °C
As of 1:00 PM on Saturday 25 Oct 2014 (Local Time) from GCXO Reporting Station
Few Clouds Few Clouds  
Wind Chill: 79°   Ceiling: Unl
Heat Index: 79°   Visibility: 6mi
Dew Point: 45°   Wind: 5mph
Humidity: 30%   Direction: 110°ESE
Pressure: 30.12"   Gusts: NA
Location:  28.47°N, 16.25°W
Report Text: GCXO 251200Z 11004KT 070V160 9999 FEW030 26/07 Q1020 NOSIG
Loading
Personal Weather Stations






























Interactive Weather Map
Tropical Storm Tracking
New forecast layout! Learn more

10-Day Weather Forecast

Advertisements
Track Severe Weather on mobile